SAA352 FAOR-FAPE
Flight info
| Callsign | SAA352 |
|---|---|
| Flight time | N/A |
| Altitude | 36000 |
| Route | OVALA UZ18 NEVEN UQ8 ALKAT DCT PEV |
| Aircraft | A320/M-SDE3FGHIRWY/LB1 |
Departure
| Time | 2026-05-01 13:40 |
|---|---|
| Airport | O.R. Tambo International Airport (FAOR) |
Arrival
| Time | N/A |
|---|---|
| Airport | Chief Dawid Stuurman International Airport (FAPE) |
| Time | Latitude | Longitude | Altitude | Speed | Heading |
|---|---|---|---|---|---|
| 2026-05-01 13:12 | -26.13504 | 28.23449 | 5569 ft | 0 kts | 95° |
| 2026-05-01 13:30 | -26.13500 | 28.23399 | 5572 ft | 2 kts | 95° |
| 2026-05-01 13:31 | -26.13504 | 28.23373 | 5574 ft | 2 kts | 49° |
| 2026-05-01 13:31 | -26.13525 | 28.23362 | 5574 ft | 0 kts | 7° |
| 2026-05-01 13:34 | -26.13495 | 28.23367 | 5574 ft | 8 kts | 8° |
| 2026-05-01 13:35 | -26.13428 | 28.23455 | 5567 ft | 10 kts | 96° |
| 2026-05-01 13:35 | -26.13437 | 28.23549 | 5562 ft | 13 kts | 101° |
| 2026-05-01 13:35 | -26.13613 | 28.23550 | 5563 ft | 18 kts | 195° |
| 2026-05-01 13:36 | -26.13734 | 28.23512 | 5565 ft | 18 kts | 196° |
| 2026-05-01 13:36 | -26.13854 | 28.23474 | 5567 ft | 17 kts | 195° |
| 2026-05-01 13:36 | -26.14098 | 28.23399 | 5571 ft | 18 kts | 196° |
| 2026-05-01 13:37 | -26.14215 | 28.23362 | 5574 ft | 17 kts | 196° |
| 2026-05-01 13:37 | -26.14330 | 28.23326 | 5576 ft | 16 kts | 196° |
| 2026-05-01 13:37 | -26.14420 | 28.23299 | 5580 ft | 9 kts | 194° |
| 2026-05-01 13:37 | -26.14470 | 28.23304 | 5580 ft | 5 kts | 149° |
| 2026-05-01 13:38 | -26.14470 | 28.23454 | 5571 ft | 13 kts | 84° |
| 2026-05-01 13:38 | -26.14424 | 28.23504 | 5567 ft | 0 kts | 15° |
| 2026-05-01 13:38 | -26.14421 | 28.23505 | 5567 ft | 0 kts | 15° |
| 2026-05-01 13:39 | -26.14382 | 28.23517 | 5566 ft | 17 kts | 15° |
| 2026-05-01 13:39 | -26.14102 | 28.23602 | 5560 ft | 67 kts | 15° |
| 2026-05-01 13:39 | -26.13491 | 28.23789 | 5549 ft | 115 kts | 14° |
| 2026-05-01 13:39 | -26.12562 | 28.24075 | 5527 ft | 158 kts | 15° |
| 2026-05-01 13:40 | -26.11516 | 28.24445 | 5944 ft | 161 kts | 18° |
| 2026-05-01 13:40 | -26.10374 | 28.24880 | 6178 ft | 183 kts | 18° |
| 2026-05-01 13:40 | -26.09148 | 28.25363 | 6628 ft | 192 kts | 19° |
| 2026-05-01 13:40 | -26.07860 | 28.25865 | 6890 ft | 205 kts | 18° |
| 2026-05-01 13:41 | -26.06424 | 28.26435 | 6946 ft | 235 kts | 23° |
| 2026-05-01 13:41 | -26.05152 | 28.27462 | 7015 ft | 264 kts | 51° |
| 2026-05-01 13:41 | -26.04470 | 28.29429 | 7321 ft | 287 kts | 88° |
| 2026-05-01 13:41 | -26.04985 | 28.31547 | 8197 ft | 289 kts | 122° |
| 2026-05-01 13:42 | -26.06463 | 28.33024 | 8947 ft | 294 kts | 152° |
| 2026-05-01 13:42 | -26.08404 | 28.33833 | 9694 ft | 298 kts | 162° |
| 2026-05-01 13:42 | -26.10268 | 28.34507 | 10378 ft | 301 kts | 160° |
| 2026-05-01 13:42 | -26.12219 | 28.35274 | 10473 ft | 326 kts | 160° |
| 2026-05-01 13:43 | -26.14468 | 28.36134 | 10496 ft | 354 kts | 160° |
| 2026-05-01 13:43 | -26.16796 | 28.37045 | 10546 ft | 379 kts | 160° |
| 2026-05-01 13:43 | -26.19293 | 28.38031 | 11308 ft | 382 kts | 160° |
| 2026-05-01 13:43 | -26.21797 | 28.39020 | 12199 ft | 382 kts | 160° |
| 2026-05-01 13:44 | -26.24315 | 28.40017 | 12851 ft | 387 kts | 160° |
| 2026-05-01 13:44 | -26.26855 | 28.41023 | 13515 ft | 392 kts | 160° |
| 2026-05-01 13:44 | -26.29433 | 28.42046 | 14182 ft | 397 kts | 159° |
| 2026-05-01 13:44 | -26.32067 | 28.43091 | 14826 ft | 401 kts | 159° |
| 2026-05-01 13:45 | -26.34694 | 28.44133 | 15445 ft | 406 kts | 159° |
| 2026-05-01 13:45 | -26.37363 | 28.45193 | 16049 ft | 411 kts | 159° |
| 2026-05-01 13:45 | -26.40055 | 28.46263 | 16637 ft | 415 kts | 159° |
| 2026-05-01 13:45 | -26.42796 | 28.47353 | 17218 ft | 420 kts | 159° |
| 2026-05-01 13:46 | -26.45582 | 28.48461 | 17781 ft | 424 kts | 159° |
| 2026-05-01 13:46 | -26.48357 | 28.49565 | 18326 ft | 429 kts | 159° |
| 2026-05-01 13:46 | -26.51193 | 28.50694 | 18865 ft | 433 kts | 159° |
| 2026-05-01 13:46 | -26.54043 | 28.51829 | 19388 ft | 437 kts | 159° |
| 2026-05-01 13:47 | -26.56886 | 28.52962 | 19880 ft | 442 kts | 160° |
| 2026-05-01 13:47 | -26.59808 | 28.54128 | 20385 ft | 446 kts | 160° |
| 2026-05-01 13:47 | -26.62731 | 28.55294 | 20864 ft | 450 kts | 160° |
| 2026-05-01 13:47 | -26.65707 | 28.56482 | 21348 ft | 453 kts | 160° |
| 2026-05-01 13:48 | -26.68697 | 28.57676 | 21802 ft | 458 kts | 160° |
| 2026-05-01 13:48 | -26.71690 | 28.58872 | 22253 ft | 461 kts | 160° |
| 2026-05-01 13:48 | -26.74726 | 28.60086 | 22708 ft | 464 kts | 160° |
| 2026-05-01 13:48 | -26.77823 | 28.61190 | 23115 ft | 468 kts | 169° |
| 2026-05-01 13:49 | -26.81044 | 28.61392 | 23516 ft | 469 kts | 188° |
| 2026-05-01 13:49 | -26.84168 | 28.60431 | 23924 ft | 466 kts | 209° |
| 2026-05-01 13:49 | -26.86875 | 28.58441 | 24332 ft | 464 kts | 221° |
| 2026-05-01 13:49 | -26.89413 | 28.56206 | 24800 ft | 465 kts | 220° |
| 2026-05-01 13:50 | -26.92008 | 28.54018 | 25395 ft | 463 kts | 221° |
| 2026-05-01 13:50 | -26.94553 | 28.51817 | 25924 ft | 462 kts | 221° |
| 2026-05-01 13:50 | -26.97102 | 28.49604 | 26435 ft | 461 kts | 221° |
| 2026-05-01 13:50 | -26.99611 | 28.47429 | 26920 ft | 460 kts | 221° |
| 2026-05-01 13:51 | -27.02147 | 28.45227 | 27585 ft | 454 kts | 221° |
| 2026-05-01 13:51 | -27.04605 | 28.43090 | 28230 ft | 448 kts | 221° |
| 2026-05-01 13:51 | -27.07078 | 28.40940 | 28732 ft | 446 kts | 221° |
| 2026-05-01 13:51 | -27.09505 | 28.38828 | 29146 ft | 445 kts | 221° |
| 2026-05-01 13:52 | -27.11946 | 28.36707 | 29571 ft | 443 kts | 221° |
| 2026-05-01 13:52 | -27.14400 | 28.34577 | 30007 ft | 441 kts | 221° |
| 2026-05-01 13:52 | -27.16798 | 28.32487 | 30424 ft | 439 kts | 221° |
| 2026-05-01 13:52 | -27.19197 | 28.30395 | 30789 ft | 438 kts | 221° |
| 2026-05-01 13:53 | -27.21602 | 28.28297 | 31151 ft | 437 kts | 221° |
| 2026-05-01 13:53 | -27.26370 | 28.24133 | 31917 ft | 432 kts | 221° |
| 2026-05-01 13:53 | -27.28759 | 28.22046 | 32210 ft | 432 kts | 221° |
| 2026-05-01 13:54 | -27.31135 | 28.19968 | 32535 ft | 430 kts | 221° |
| 2026-05-01 13:54 | -27.33485 | 28.17913 | 32881 ft | 428 kts | 221° |
| 2026-05-01 13:54 | -27.35820 | 28.15869 | 33204 ft | 426 kts | 221° |
| 2026-05-01 13:54 | -27.38172 | 28.13808 | 33464 ft | 426 kts | 221° |
| 2026-05-01 13:55 | -27.40501 | 28.11768 | 33727 ft | 425 kts | 221° |
| 2026-05-01 13:55 | -27.42805 | 28.09747 | 34019 ft | 423 kts | 222° |
| 2026-05-01 13:55 | -27.45142 | 28.07697 | 34231 ft | 423 kts | 221° |
| 2026-05-01 13:55 | -27.47498 | 28.05720 | 34402 ft | 426 kts | 216° |
| 2026-05-01 13:56 | -27.50203 | 28.04291 | 34650 ft | 431 kts | 203° |
| 2026-05-01 13:56 | -27.53056 | 28.03290 | 34855 ft | 432 kts | 202° |
| 2026-05-01 13:56 | -27.55897 | 28.02256 | 35020 ft | 431 kts | 202° |
| 2026-05-01 13:56 | -27.58762 | 28.01226 | 35180 ft | 432 kts | 202° |
| 2026-05-01 13:57 | -27.61621 | 28.00218 | 35376 ft | 431 kts | 202° |
| 2026-05-01 13:57 | -27.63535 | 27.99539 | 35500 ft | 430 kts | 202° |
| 2026-05-01 13:57 | -27.67360 | 27.98184 | 35748 ft | 429 kts | 202° |
| 2026-05-01 13:57 | -27.70205 | 27.97177 | 35926 ft | 428 kts | 202° |
| 2026-05-01 13:58 | -27.73054 | 27.96167 | 36046 ft | 429 kts | 202° |
| 2026-05-01 13:58 | -27.75914 | 27.95154 | 36182 ft | 425 kts | 202° |
| 2026-05-01 13:58 | -27.81480 | 27.93182 | 36223 ft | 421 kts | 202° |
| 2026-05-01 13:59 | -27.87088 | 27.91199 | 36202 ft | 428 kts | 202° |
| 2026-05-01 13:59 | -27.92818 | 27.89172 | 36215 ft | 429 kts | 202° |
| 2026-05-01 14:00 | -27.98482 | 27.87166 | 36208 ft | 428 kts | 202° |
| 2026-05-01 14:00 | -28.04166 | 27.85083 | 36212 ft | 427 kts | 202° |
| 2026-05-01 14:01 | -28.09754 | 27.83027 | 36206 ft | 428 kts | 202° |
| 2026-05-01 14:01 | -28.15332 | 27.80975 | 36212 ft | 427 kts | 202° |
| 2026-05-01 14:02 | -28.20836 | 27.78944 | 36210 ft | 427 kts | 202° |
| 2026-05-01 14:02 | -28.26460 | 27.76865 | 36208 ft | 427 kts | 202° |
| 2026-05-01 14:03 | -28.32137 | 27.74764 | 36212 ft | 428 kts | 202° |
| 2026-05-01 14:03 | -28.37784 | 27.72673 | 36207 ft | 428 kts | 202° |
| 2026-05-01 14:04 | -28.43424 | 27.70581 | 36208 ft | 427 kts | 202° |
| 2026-05-01 14:04 | -28.48149 | 27.68827 | 36210 ft | 428 kts | 202° |
| 2026-05-01 14:05 | -28.54724 | 27.66384 | 36209 ft | 427 kts | 202° |
| 2026-05-01 14:05 | -28.60371 | 27.64283 | 36210 ft | 427 kts | 202° |
| 2026-05-01 14:06 | -28.65992 | 27.62189 | 36210 ft | 428 kts | 202° |
| 2026-05-01 14:06 | -28.71663 | 27.60075 | 36207 ft | 427 kts | 202° |
| 2026-05-01 14:07 | -28.77320 | 27.57963 | 36214 ft | 428 kts | 202° |
| 2026-05-01 14:08 | -28.85785 | 27.54799 | 36211 ft | 427 kts | 202° |
| 2026-05-01 14:08 | -28.91430 | 27.52684 | 36209 ft | 430 kts | 202° |
| 2026-05-01 14:09 | -28.97161 | 27.50538 | 36210 ft | 429 kts | 202° |
| 2026-05-01 14:09 | -29.02799 | 27.48421 | 36208 ft | 428 kts | 202° |
| 2026-05-01 14:10 | -29.08481 | 27.46286 | 36210 ft | 431 kts | 203° |
| 2026-05-01 14:10 | -29.14209 | 27.44137 | 36208 ft | 430 kts | 202° |
| 2026-05-01 14:11 | -29.19878 | 27.42003 | 36209 ft | 429 kts | 202° |
| 2026-05-01 14:11 | -29.28388 | 27.38795 | 36209 ft | 430 kts | 203° |
| 2026-05-01 14:12 | -29.34066 | 27.36650 | 36210 ft | 429 kts | 202° |
| 2026-05-01 14:12 | -29.39744 | 27.34502 | 36212 ft | 429 kts | 203° |
| 2026-05-01 14:13 | -29.44505 | 27.32689 | 36212 ft | 430 kts | 203° |
| 2026-05-01 14:13 | -29.51104 | 27.30189 | 36210 ft | 429 kts | 203° |
| 2026-05-01 14:14 | -29.56805 | 27.28025 | 36213 ft | 430 kts | 203° |
| 2026-05-01 14:14 | -29.62464 | 27.25875 | 36211 ft | 429 kts | 203° |
| 2026-05-01 14:15 | -29.68135 | 27.23718 | 36209 ft | 429 kts | 203° |
| 2026-05-01 14:15 | -29.73850 | 27.21542 | 36213 ft | 429 kts | 203° |
| 2026-05-01 14:16 | -29.79510 | 27.19384 | 36209 ft | 428 kts | 203° |
| 2026-05-01 14:16 | -29.85179 | 27.17220 | 36213 ft | 429 kts | 203° |
| 2026-05-01 14:17 | -29.90818 | 27.15065 | 36208 ft | 429 kts | 203° |
| 2026-05-01 14:17 | -29.96523 | 27.12882 | 36211 ft | 428 kts | 203° |
| 2026-05-01 14:18 | -30.02200 | 27.10707 | 36212 ft | 429 kts | 203° |
| 2026-05-01 14:18 | -30.06888 | 27.08910 | 36210 ft | 428 kts | 203° |
| 2026-05-01 14:19 | -30.13493 | 27.06377 | 36213 ft | 427 kts | 203° |
| 2026-05-01 14:19 | -30.19067 | 27.04236 | 36211 ft | 427 kts | 203° |
| 2026-05-01 14:20 | -30.27506 | 27.00987 | 36212 ft | 426 kts | 203° |
| 2026-05-01 14:21 | -30.33106 | 26.98827 | 36209 ft | 425 kts | 203° |
| 2026-05-01 14:21 | -30.38728 | 26.96656 | 36210 ft | 423 kts | 203° |
| 2026-05-01 14:22 | -30.47112 | 26.93415 | 36211 ft | 423 kts | 203° |
| 2026-05-01 14:22 | -30.52685 | 26.91256 | 36209 ft | 422 kts | 203° |
| 2026-05-01 14:23 | -30.58252 | 26.89097 | 36209 ft | 422 kts | 203° |
| 2026-05-01 14:23 | -30.63793 | 26.86947 | 36210 ft | 420 kts | 203° |
| 2026-05-01 14:24 | -30.69349 | 26.84787 | 36211 ft | 421 kts | 203° |
| 2026-05-01 14:24 | -30.74918 | 26.82619 | 36211 ft | 421 kts | 203° |
| 2026-05-01 14:25 | -30.80507 | 26.80443 | 36209 ft | 421 kts | 203° |
| 2026-05-01 14:25 | -30.86024 | 26.78291 | 36209 ft | 422 kts | 203° |
| 2026-05-01 14:26 | -30.94390 | 26.75026 | 36207 ft | 422 kts | 204° |
| 2026-05-01 14:27 | -30.99997 | 26.72832 | 36213 ft | 426 kts | 204° |
| 2026-05-01 14:27 | -31.05651 | 26.70617 | 36210 ft | 431 kts | 205° |
| 2026-05-01 14:28 | -31.14148 | 26.67290 | 36211 ft | 428 kts | 205° |
| 2026-05-01 14:28 | -31.19815 | 26.65064 | 36208 ft | 429 kts | 205° |
| 2026-05-01 14:29 | -31.25483 | 26.62835 | 36210 ft | 428 kts | 205° |
| 2026-05-01 14:30 | -31.36788 | 26.58380 | 36209 ft | 429 kts | 205° |
| 2026-05-01 14:31 | -31.45275 | 26.55027 | 36208 ft | 429 kts | 205° |
| 2026-05-01 14:31 | -31.50924 | 26.52793 | 36209 ft | 428 kts | 205° |
| 2026-05-01 14:32 | -31.56538 | 26.50568 | 36210 ft | 428 kts | 205° |
| 2026-05-01 14:32 | -31.62222 | 26.48311 | 36208 ft | 429 kts | 205° |
| 2026-05-01 14:33 | -31.67856 | 26.46071 | 36209 ft | 429 kts | 205° |
| 2026-05-01 14:33 | -31.73513 | 26.43819 | 36209 ft | 428 kts | 205° |
| 2026-05-01 14:34 | -31.79151 | 26.41572 | 36209 ft | 428 kts | 205° |
| 2026-05-01 14:34 | -31.84783 | 26.39324 | 36209 ft | 428 kts | 205° |
| 2026-05-01 14:35 | -31.90411 | 26.37075 | 36209 ft | 429 kts | 205° |
| 2026-05-01 14:35 | -31.96050 | 26.34819 | 36210 ft | 429 kts | 206° |
| 2026-05-01 14:36 | -32.01711 | 26.32531 | 35846 ft | 432 kts | 205° |
| 2026-05-01 14:36 | -32.04567 | 26.31386 | 35494 ft | 429 kts | 205° |
| 2026-05-01 14:36 | -32.07360 | 26.30263 | 35152 ft | 427 kts | 205° |
| 2026-05-01 14:36 | -32.10159 | 26.29135 | 34817 ft | 427 kts | 205° |
| 2026-05-01 14:37 | -32.12989 | 26.27998 | 34462 ft | 430 kts | 205° |
| 2026-05-01 14:37 | -32.15745 | 26.26891 | 33982 ft | 435 kts | 205° |
| 2026-05-01 14:37 | -32.18624 | 26.25738 | 33432 ft | 435 kts | 205° |
| 2026-05-01 14:37 | -32.21446 | 26.24606 | 32884 ft | 433 kts | 205° |
| 2026-05-01 14:38 | -32.24303 | 26.23457 | 32326 ft | 431 kts | 205° |
| 2026-05-01 14:38 | -32.27135 | 26.22319 | 31768 ft | 430 kts | 205° |
| 2026-05-01 14:38 | -32.29956 | 26.21184 | 31212 ft | 428 kts | 205° |
| 2026-05-01 14:38 | -32.32769 | 26.20051 | 30656 ft | 427 kts | 205° |
| 2026-05-01 14:39 | -32.35550 | 26.18930 | 30104 ft | 425 kts | 205° |
| 2026-05-01 14:39 | -32.38330 | 26.17809 | 29550 ft | 424 kts | 205° |
| 2026-05-01 14:39 | -32.41128 | 26.16680 | 28999 ft | 422 kts | 205° |
| 2026-05-01 14:39 | -32.43882 | 26.15567 | 28460 ft | 420 kts | 205° |
| 2026-05-01 14:40 | -32.46630 | 26.14454 | 27919 ft | 418 kts | 205° |
| 2026-05-01 14:40 | -32.49366 | 26.13347 | 27381 ft | 416 kts | 205° |
| 2026-05-01 14:40 | -32.52125 | 26.12229 | 26836 ft | 414 kts | 205° |
| 2026-05-01 14:40 | -32.54830 | 26.11132 | 26302 ft | 411 kts | 205° |
| 2026-05-01 14:41 | -32.57534 | 26.10035 | 25768 ft | 409 kts | 205° |
| 2026-05-01 14:41 | -32.60213 | 26.08947 | 25237 ft | 407 kts | 205° |
| 2026-05-01 14:41 | -32.62865 | 26.07870 | 24713 ft | 405 kts | 205° |
| 2026-05-01 14:41 | -32.65511 | 26.06795 | 24199 ft | 402 kts | 205° |
| 2026-05-01 14:42 | -32.68150 | 26.05721 | 23687 ft | 400 kts | 205° |
| 2026-05-01 14:42 | -32.70768 | 26.04656 | 23179 ft | 397 kts | 205° |
| 2026-05-01 14:42 | -32.73383 | 26.03591 | 22673 ft | 395 kts | 205° |
| 2026-05-01 14:42 | -32.75950 | 26.02545 | 22170 ft | 392 kts | 205° |
| 2026-05-01 14:43 | -32.78512 | 26.01500 | 21667 ft | 389 kts | 204° |
| 2026-05-01 14:43 | -32.81071 | 26.00458 | 21124 ft | 381 kts | 204° |
| 2026-05-01 14:43 | -32.83517 | 25.99460 | 20616 ft | 372 kts | 205° |
| 2026-05-01 14:43 | -32.85948 | 25.98471 | 20124 ft | 359 kts | 205° |
| 2026-05-01 14:44 | -32.88290 | 25.97513 | 19672 ft | 355 kts | 205° |
| 2026-05-01 14:44 | -32.92937 | 25.95613 | 18764 ft | 352 kts | 205° |
| 2026-05-01 14:44 | -32.95231 | 25.94676 | 18312 ft | 350 kts | 205° |
| 2026-05-01 14:45 | -32.97523 | 25.93739 | 17859 ft | 349 kts | 205° |
| 2026-05-01 14:45 | -33.02106 | 25.91865 | 16954 ft | 346 kts | 205° |
| 2026-05-01 14:45 | -33.04346 | 25.90947 | 16511 ft | 344 kts | 206° |
| 2026-05-01 14:46 | -33.06610 | 25.90020 | 16064 ft | 342 kts | 206° |
| 2026-05-01 14:46 | -33.11066 | 25.88193 | 15181 ft | 340 kts | 206° |
| 2026-05-01 14:46 | -33.13287 | 25.87286 | 14739 ft | 338 kts | 206° |
| 2026-05-01 14:47 | -33.15516 | 25.86372 | 14296 ft | 337 kts | 206° |
| 2026-05-01 14:47 | -33.17701 | 25.85510 | 13850 ft | 331 kts | 202° |
| 2026-05-01 14:47 | -33.19994 | 25.85032 | 13422 ft | 334 kts | 194° |
| 2026-05-01 14:48 | -33.24623 | 25.84277 | 12561 ft | 337 kts | 194° |
| 2026-05-01 14:48 | -33.26936 | 25.83921 | 12122 ft | 336 kts | 194° |
| 2026-05-01 14:48 | -33.31533 | 25.83222 | 11257 ft | 333 kts | 194° |
| 2026-05-01 14:49 | -33.36079 | 25.82535 | 10485 ft | 322 kts | 193° |
| 2026-05-01 14:49 | -33.40315 | 25.81900 | 10014 ft | 299 kts | 193° |
| 2026-05-01 14:50 | -33.43004 | 25.81497 | 9562 ft | 283 kts | 193° |
| 2026-05-01 14:50 | -33.48121 | 25.80724 | 8742 ft | 275 kts | 192° |
| 2026-05-01 14:51 | -33.50013 | 25.80439 | 8434 ft | 272 kts | 191° |
| 2026-05-01 14:51 | -33.53758 | 25.79875 | 7826 ft | 269 kts | 191° |
| 2026-05-01 14:52 | -33.57438 | 25.79321 | 7226 ft | 267 kts | 189° |
| 2026-05-01 14:52 | -33.59261 | 25.79046 | 6929 ft | 266 kts | 189° |
| 2026-05-01 14:52 | -33.62943 | 25.78491 | 6327 ft | 264 kts | 188° |
| 2026-05-01 14:53 | -33.64762 | 25.78216 | 6029 ft | 264 kts | 188° |
| 2026-05-01 14:53 | -33.66560 | 25.77945 | 5735 ft | 264 kts | 188° |
| 2026-05-01 14:53 | -33.68382 | 25.77670 | 5442 ft | 263 kts | 188° |
| 2026-05-01 14:53 | -33.70216 | 25.77393 | 5152 ft | 263 kts | 187° |
| 2026-05-01 14:54 | -33.72026 | 25.77120 | 4865 ft | 263 kts | 187° |
| 2026-05-01 14:54 | -33.73831 | 25.76847 | 4570 ft | 257 kts | 187° |
| 2026-05-01 14:54 | -33.75581 | 25.76583 | 4285 ft | 250 kts | 187° |
| 2026-05-01 14:54 | -33.77272 | 25.76328 | 4006 ft | 240 kts | 187° |
| 2026-05-01 14:55 | -33.78873 | 25.76086 | 3784 ft | 228 kts | 187° |
| 2026-05-01 14:55 | -33.80417 | 25.75853 | 3656 ft | 217 kts | 187° |
| 2026-05-01 14:55 | -33.81903 | 25.75629 | 3480 ft | 215 kts | 187° |
| 2026-05-01 14:55 | -33.83342 | 25.75413 | 3370 ft | 205 kts | 187° |
| 2026-05-01 14:56 | -33.84765 | 25.75198 | 3109 ft | 204 kts | 187° |
| 2026-05-01 14:56 | -33.86163 | 25.74987 | 2864 ft | 199 kts | 187° |
| 2026-05-01 14:56 | -33.87470 | 25.74790 | 2637 ft | 193 kts | 187° |
| 2026-05-01 14:56 | -33.88757 | 25.74596 | 2552 ft | 179 kts | 187° |
| 2026-05-01 14:57 | -33.89990 | 25.74410 | 2564 ft | 180 kts | 187° |
| 2026-05-01 14:57 | -33.92263 | 25.73416 | 2463 ft | 172 kts | 226° |
| 2026-05-01 14:57 | -33.92947 | 25.72273 | 2240 ft | 166 kts | 234° |
| 2026-05-01 14:58 | -33.93570 | 25.71148 | 2027 ft | 157 kts | 233° |
| 2026-05-01 14:58 | -33.94163 | 25.70053 | 1806 ft | 153 kts | 235° |
| 2026-05-01 14:58 | -33.94709 | 25.69001 | 1604 ft | 143 kts | 235° |
| 2026-05-01 14:58 | -33.95233 | 25.67998 | 1428 ft | 140 kts | 235° |
| 2026-05-01 14:59 | -33.95741 | 25.67022 | 1222 ft | 135 kts | 235° |
| 2026-05-01 14:59 | -33.96231 | 25.66077 | 1045 ft | 134 kts | 235° |
| 2026-05-01 14:59 | -33.96725 | 25.65128 | 868 ft | 134 kts | 235° |
| 2026-05-01 14:59 | -33.97219 | 25.64175 | 688 ft | 134 kts | 235° |
| 2026-05-01 15:00 | -33.98238 | 25.62217 | 309 ft | 139 kts | 234° |
| 2026-05-01 15:00 | -33.98735 | 25.61261 | 212 ft | 120 kts | 236° |
| 2026-05-01 15:00 | -33.99092 | 25.60569 | 228 ft | 75 kts | 237° |
| 2026-05-01 15:01 | -33.99318 | 25.60139 | 235 ft | 69 kts | 236° |